createdAt,value
2022-11-28T00:01:30.504Z,5.80
2022-11-28T00:03:58.700Z,5.57
2022-11-28T00:06:27.423Z,7.93
2022-11-28T00:08:56.100Z,4.70
2022-11-28T00:11:23.932Z,3.60
2022-11-28T00:13:52.054Z,3.10
2022-11-28T00:16:22.197Z,3.47
2022-11-28T00:18:52.061Z,6.87
2022-11-28T00:21:21.111Z,3.23
2022-11-28T00:23:50.174Z,2.30
2022-11-28T00:26:21.077Z,5.03
2022-11-28T00:28:49.258Z,3.80
2022-11-28T00:31:19.024Z,3.90
2022-11-28T00:33:47.496Z,4.73
2022-11-28T00:36:16.985Z,4.70
2022-11-28T00:38:44.812Z,7.00
2022-11-28T00:41:14.433Z,2.70
2022-11-28T00:43:44.216Z,5.80
2022-11-28T00:46:13.117Z,4.30
2022-11-28T00:48:41.236Z,2.40
2022-11-28T00:51:11.087Z,9.43
2022-11-28T00:53:42.651Z,2.57
2022-11-28T00:56:11.668Z,4.93
2022-11-28T00:58:40.214Z,2.50
2022-11-28T01:01:12.742Z,3.63
2022-11-28T01:03:41.224Z,3.47
2022-11-28T01:06:09.682Z,5.63
2022-11-28T01:08:37.653Z,6.17
2022-11-28T01:11:12.956Z,2.53
2022-11-28T01:13:40.938Z,5.20
2022-11-28T01:16:09.891Z,3.00
2022-11-28T01:18:38.402Z,7.30
2022-11-28T01:21:06.919Z,7.50
2022-11-28T01:23:35.103Z,2.73
2022-11-28T01:26:04.712Z,4.40
2022-11-28T01:28:34.737Z,6.53
2022-11-28T01:31:06.026Z,3.40
2022-11-28T01:33:34.259Z,4.40
2022-11-28T01:36:02.578Z,2.83
2022-11-28T01:38:30.489Z,7.10
2022-11-28T01:40:58.646Z,5.80
2022-11-28T01:43:26.736Z,5.47
2022-11-28T01:45:56.555Z,3.77
2022-11-28T01:48:27.346Z,4.17
2022-11-28T01:50:59.481Z,4.47
2022-11-28T01:53:29.490Z,9.23
2022-11-28T01:56:00.666Z,3.47
2022-11-28T01:58:29.381Z,3.30
2022-11-28T02:00:59.256Z,3.50
2022-11-28T02:03:31.604Z,3.30
2022-11-28T02:05:59.466Z,3.30
2022-11-28T02:08:27.333Z,3.50
2022-11-28T02:11:11.810Z,4.00
2022-11-28T02:13:46.074Z,3.97
2022-11-28T02:16:35.849Z,2.30
2022-11-28T02:19:32.274Z,3.97
2022-11-28T02:22:06.338Z,7.27
2022-11-28T02:24:57.367Z,3.73
2022-11-28T02:27:49.900Z,8.23
2022-11-28T02:30:20.863Z,3.13
2022-11-28T02:33:02.195Z,15.07
2022-11-28T02:35:36.761Z,11.27
2022-11-28T02:38:14.843Z,3.27
2022-11-28T02:40:51.939Z,4.30
2022-11-28T02:43:30.655Z,3.93
2022-11-28T02:46:03.817Z,3.47
2022-11-28T02:48:39.921Z,4.40
2022-11-28T02:51:13.043Z,4.67
2022-11-28T02:53:44.176Z,5.70
2022-11-28T02:56:13.044Z,4.70
2022-11-28T02:58:41.072Z,6.00
2022-11-28T03:01:18.293Z,8.73
2022-11-28T03:04:06.263Z,4.97
2022-11-28T03:06:44.703Z,5.43
2022-11-28T03:09:52.960Z,3.73
2022-11-28T03:12:29.539Z,3.30
2022-11-28T03:14:59.887Z,7.17
2022-11-28T03:17:39.987Z,6.63
2022-11-28T03:20:17.940Z,6.57
2022-11-28T03:22:56.336Z,5.20
2022-11-28T03:25:28.187Z,7.57
2022-11-28T03:28:02.905Z,7.40
2022-11-28T03:30:34.958Z,6.87
2022-11-28T03:40:49.333Z,5.37
2022-11-28T03:43:20.215Z,2.33
2022-11-28T03:45:51.284Z,4.27
2022-11-28T03:48:24.722Z,5.70
2022-11-28T03:50:59.294Z,3.80
2022-11-28T03:53:31.435Z,5.10
2022-11-28T03:56:05.688Z,2.70
2022-11-28T03:58:37.637Z,4.73
2022-11-28T04:01:18.009Z,7.30
2022-11-28T04:03:53.369Z,5.07
2022-11-28T04:06:27.112Z,4.43
2022-11-28T04:09:01.908Z,6.33
2022-11-28T04:11:38.342Z,4.17
2022-11-28T04:14:14.029Z,3.50
2022-11-28T04:16:53.597Z,7.90
2022-11-28T04:19:28.369Z,7.70
2022-11-28T04:22:02.511Z,2.90
2022-11-28T04:24:34.576Z,6.47
2022-11-28T04:27:07.288Z,3.33
2022-11-28T04:29:39.760Z,7.17
2022-11-28T04:32:10.224Z,36.00
2022-11-28T04:34:40.084Z,8.13
2022-11-28T04:37:10.077Z,6.70
2022-11-28T04:39:39.749Z,5.70
2022-11-28T04:42:14.058Z,17.33
2022-11-28T04:44:48.383Z,6.93
2022-11-28T04:47:17.096Z,20.50
2022-11-28T04:49:45.239Z,11.60
2022-11-28T04:52:17.195Z,8.93
2022-11-28T04:54:56.332Z,10.53
2022-11-28T04:57:31.665Z,7.33
2022-11-28T04:59:59.762Z,5.30
2022-11-28T05:02:29.476Z,6.70
2022-11-28T05:04:58.242Z,8.87
2022-11-28T05:07:26.123Z,5.83
2022-11-28T05:09:55.559Z,7.97
2022-11-28T05:12:24.788Z,8.10
2022-11-28T05:14:52.616Z,3.57
2022-11-28T05:17:20.433Z,3.47
2022-11-28T05:19:48.268Z,3.67
2022-11-28T05:22:16.063Z,4.47
2022-11-28T05:24:44.190Z,4.83
2022-11-28T05:27:12.423Z,7.10
2022-11-28T05:29:46.828Z,22.33
2022-11-28T05:32:17.497Z,11.80
2022-11-28T05:34:45.374Z,5.20
2022-11-28T05:37:13.560Z,5.87
2022-11-28T05:39:41.762Z,8.20
2022-11-28T05:42:09.797Z,12.77
2022-11-28T05:44:38.496Z,4.90
2022-11-28T05:47:07.800Z,4.43
2022-11-28T05:49:35.817Z,3.23
2022-11-28T05:52:03.608Z,4.80
2022-11-28T05:54:32.119Z,13.27
2022-11-28T05:57:00.073Z,4.63
2022-11-28T05:59:28.293Z,13.30
2022-11-28T06:01:56.359Z,9.13
2022-11-28T06:04:25.784Z,7.63
2022-11-28T06:06:53.889Z,7.57
2022-11-28T06:09:25.677Z,9.03
2022-11-28T06:11:54.194Z,8.73
2022-11-28T06:14:22.084Z,8.77
2022-11-28T06:16:49.952Z,5.30
2022-11-28T06:19:17.864Z,6.90
2022-11-28T06:21:47.395Z,7.13
2022-11-28T06:24:15.171Z,12.93
2022-11-28T06:26:43.592Z,5.77
2022-11-28T06:29:11.524Z,16.40
2022-11-28T06:31:39.538Z,5.23
2022-11-28T06:34:07.481Z,9.20
2022-11-28T06:36:35.311Z,4.30
2022-11-28T06:39:04.683Z,15.20
2022-11-28T06:41:32.660Z,7.17
2022-11-28T06:44:00.621Z,7.73
2022-11-28T06:46:28.459Z,7.00
2022-11-28T06:48:56.566Z,22.37
2022-11-28T06:51:24.487Z,17.67
2022-11-28T06:53:52.374Z,10.67
2022-11-28T06:56:22.073Z,6.63
2022-11-28T06:58:55.481Z,12.50
2022-11-28T07:01:25.223Z,7.10
2022-11-28T07:03:55.231Z,21.93
2022-11-28T07:06:24.324Z,8.03
2022-11-28T07:08:53.510Z,7.53
2022-11-28T07:11:24.561Z,7.20
2022-11-28T07:13:52.891Z,6.47
2022-11-28T07:16:22.691Z,7.30
2022-11-28T07:18:50.957Z,8.67
2022-11-28T07:21:20.091Z,13.77
2022-11-28T07:23:49.034Z,8.10
2022-11-28T07:26:18.726Z,31.20
2022-11-28T07:28:49.096Z,62.83
2022-11-28T07:31:19.515Z,19.60
2022-11-28T07:33:51.296Z,6.70
2022-11-28T07:36:21.080Z,9.40
2022-11-28T07:38:49.770Z,11.07
2022-11-28T07:41:21.303Z,4.70
2022-11-28T07:43:55.900Z,4.27
2022-11-28T07:46:23.993Z,3.63
2022-11-28T07:48:52.258Z,4.87
2022-11-28T07:51:22.033Z,6.90
2022-11-28T07:53:50.259Z,4.50
2022-11-28T07:56:20.464Z,8.47
2022-11-28T07:58:49.386Z,20.80
2022-11-28T08:01:21.675Z,22.40
2022-11-28T08:03:50.167Z,20.27
2022-11-28T08:06:19.956Z,20.87
2022-11-28T08:08:48.756Z,20.10
2022-11-28T08:11:18.867Z,16.47
2022-11-28T08:13:47.382Z,17.70
2022-11-28T08:16:17.423Z,18.73
2022-11-28T08:18:47.542Z,17.13
2022-11-28T08:21:18.174Z,21.00
2022-11-28T08:23:46.310Z,20.87
2022-11-28T08:26:16.491Z,15.53
2022-11-28T08:28:45.077Z,16.73
2022-11-28T08:31:15.100Z,43.70
2022-11-28T08:33:43.252Z,31.13
2022-11-28T08:36:14.332Z,22.77
2022-11-28T08:38:49.949Z,18.60
2022-11-28T08:41:31.236Z,15.80
2022-11-28T08:43:59.155Z,26.70
2022-11-28T08:46:27.061Z,27.80
2022-11-28T08:48:54.912Z,22.40
2022-11-28T08:51:24.888Z,26.87
2022-11-28T08:53:59.210Z,19.70
2022-11-28T08:56:27.542Z,17.13
2022-11-28T08:58:55.556Z,21.60
2022-11-28T09:01:25.943Z,22.13
2022-11-28T09:03:54.769Z,24.40
2022-11-28T09:06:25.423Z,21.00
2022-11-28T09:08:53.827Z,18.40
2022-11-28T09:11:23.142Z,20.27
2022-11-28T09:13:51.829Z,19.60
2022-11-28T09:16:20.126Z,21.30
2022-11-28T09:18:48.054Z,21.83
2022-11-28T09:21:16.689Z,20.23
2022-11-28T09:23:46.275Z,22.03
2022-11-28T09:26:16.412Z,23.87
2022-11-28T09:28:45.145Z,18.13
2022-11-28T09:31:14.248Z,20.40
2022-11-28T09:33:42.886Z,20.57
2022-11-28T09:36:13.085Z,17.47
2022-11-28T09:38:41.274Z,15.03
2022-11-28T09:41:32.268Z,18.40
2022-11-28T09:44:04.237Z,18.00
2022-11-28T09:46:35.903Z,13.70
2022-11-28T09:49:10.374Z,14.93
2022-11-28T09:51:48.379Z,14.43
2022-11-28T09:54:20.905Z,20.20
2022-11-28T09:56:51.297Z,14.40
2022-11-28T09:59:25.262Z,18.53
2022-11-28T10:02:01.526Z,13.60
2022-11-28T10:04:38.243Z,14.03
2022-11-28T10:07:16.149Z,19.43
2022-11-28T10:09:54.389Z,19.33
2022-11-28T10:12:34.061Z,18.20
2022-11-28T10:15:19.981Z,23.13
2022-11-28T10:17:56.769Z,20.83
2022-11-28T10:20:28.597Z,13.97
2022-11-28T10:22:59.092Z,10.97
2022-11-28T10:25:31.487Z,14.40
2022-11-28T10:28:00.596Z,16.40
2022-11-28T10:30:33.623Z,23.67
2022-11-28T10:33:09.516Z,19.10
2022-11-28T10:35:43.536Z,21.83
2022-11-28T10:38:13.899Z,19.00
2022-11-28T10:40:51.268Z,20.63
2022-11-28T10:43:30.008Z,18.53
2022-11-28T10:46:05.590Z,13.57
2022-11-28T10:48:44.566Z,16.87
2022-11-28T10:51:25.752Z,13.00
2022-11-28T10:54:03.966Z,11.93
2022-11-28T10:56:41.251Z,13.00
2022-11-28T10:59:22.160Z,16.63
2022-11-28T11:01:52.159Z,16.00
2022-11-28T11:04:22.223Z,16.23
2022-11-28T11:07:09.092Z,12.60
2022-11-28T11:09:41.004Z,10.23
2022-11-28T11:12:18.770Z,12.03
2022-11-28T11:14:49.137Z,12.77
2022-11-28T11:17:32.754Z,11.43
2022-11-28T11:20:04.972Z,14.23
2022-11-28T11:22:32.917Z,14.67
2022-11-28T11:25:14.396Z,19.10
2022-11-28T11:27:49.913Z,14.43
2022-11-28T11:30:27.301Z,14.57
2022-11-28T11:32:56.761Z,31.23
2022-11-28T11:35:27.349Z,30.30
2022-11-28T11:38:14.673Z,34.50
2022-11-28T11:40:42.702Z,32.63
2022-11-28T11:43:26.012Z,31.90
2022-11-28T11:46:12.234Z,39.67
2022-11-28T11:48:42.547Z,41.23
2022-11-28T11:51:23.743Z,37.17
2022-11-28T11:54:18.787Z,63.77
2022-11-28T11:56:53.582Z,58.00
2022-11-28T11:59:30.684Z,54.20
2022-11-28T12:02:03.233Z,47.07
2022-11-28T12:04:45.807Z,17.10
2022-11-28T12:07:25.341Z,36.67
2022-11-28T12:10:00.533Z,25.13
2022-11-28T12:12:34.439Z,51.07
2022-11-28T12:15:02.411Z,57.20
2022-11-28T12:17:50.076Z,51.33
2022-11-28T12:20:33.272Z,39.20
2022-11-28T12:23:17.702Z,41.57
2022-11-28T12:25:53.075Z,34.20
2022-11-28T12:28:37.407Z,25.20
2022-11-28T12:31:13.621Z,28.60
2022-11-28T12:33:51.448Z,24.37
2022-11-28T12:36:27.914Z,24.60
2022-11-28T12:39:17.537Z,23.10
2022-11-28T12:42:09.321Z,23.33
2022-11-28T12:44:54.015Z,20.03
2022-11-28T12:47:35.273Z,16.53
2022-11-28T12:50:19.141Z,26.40
2022-11-28T12:52:53.444Z,21.73
2022-11-28T12:55:29.756Z,18.10
2022-11-28T12:58:06.841Z,13.17
2022-11-28T13:00:41.390Z,14.87
2022-11-28T13:03:21.477Z,36.53
2022-11-28T13:06:07.813Z,21.73
2022-11-28T13:08:49.855Z,20.23
2022-11-28T13:11:31.978Z,31.20
2022-11-28T13:14:08.024Z,18.30
2022-11-28T13:16:44.218Z,27.33
2022-11-28T13:19:22.845Z,19.97
2022-11-28T13:22:00.876Z,16.70
2022-11-28T13:24:35.105Z,18.27
2022-11-28T13:27:11.456Z,22.50
2022-11-28T13:29:47.084Z,16.00
2022-11-28T13:32:23.342Z,14.27
2022-11-28T13:34:52.329Z,15.50
2022-11-28T13:40:22.633Z,17.53
2022-11-28T13:43:07.949Z,16.40
2022-11-28T13:45:39.618Z,18.33
2022-11-28T13:51:31.874Z,13.23
2022-11-28T13:54:44.608Z,13.33
2022-11-28T13:57:26.230Z,16.97
2022-11-28T13:59:58.695Z,11.30
2022-11-28T14:02:37.465Z,12.87
2022-11-28T14:05:19.956Z,10.30
2022-11-28T14:07:51.426Z,12.77
2022-11-28T14:10:35.245Z,14.73
2022-11-28T14:13:23.144Z,15.63
2022-11-28T14:16:04.709Z,27.57
2022-11-28T14:18:56.634Z,20.40
2022-11-28T14:21:32.371Z,13.37
2022-11-28T14:24:06.044Z,20.40
2022-11-28T14:26:36.099Z,17.93
2022-11-28T14:29:09.092Z,15.13
2022-11-28T14:31:39.015Z,12.80
2022-11-28T14:34:11.320Z,10.53
2022-11-28T14:36:41.898Z,12.93
2022-11-28T14:39:12.832Z,41.70
2022-11-28T14:42:44.181Z,32.20
2022-11-28T14:45:39.481Z,9.37
2022-11-28T14:48:18.455Z,8.80
2022-11-28T14:51:00.836Z,9.60
2022-11-28T14:53:47.844Z,9.57
2022-11-28T14:56:26.693Z,21.43
2022-11-28T14:58:58.944Z,18.87
2022-11-28T15:01:56.865Z,18.43
2022-11-28T15:04:43.067Z,21.07
2022-11-28T15:07:24.892Z,19.63
2022-11-28T15:10:07.202Z,25.50
2022-11-28T15:12:43.550Z,43.20
2022-11-28T15:15:16.841Z,28.33
2022-11-28T15:17:51.227Z,26.90
2022-11-28T15:20:25.572Z,22.40
2022-11-28T15:22:53.679Z,28.57
2022-11-28T15:25:23.702Z,24.43
2022-11-28T15:27:52.093Z,22.40
2022-11-28T15:30:23.550Z,28.03
2022-11-28T15:32:53.124Z,28.07
2022-11-28T15:35:22.920Z,22.83
2022-11-28T15:37:54.162Z,29.60
2022-11-28T15:40:26.211Z,23.50
2022-11-28T15:42:54.106Z,30.80
2022-11-28T15:45:26.068Z,23.30
2022-11-28T15:47:55.448Z,25.43
2022-11-28T15:50:27.082Z,27.53
2022-11-28T15:52:56.301Z,18.33
2022-11-28T15:55:24.276Z,25.23
2022-11-28T15:57:52.307Z,21.67
2022-11-28T16:00:21.863Z,28.90
2022-11-28T16:02:50.080Z,28.37
2022-11-28T16:05:20.895Z,24.87
2022-11-28T16:07:51.914Z,25.07
2022-11-28T16:10:24.544Z,23.63
2022-11-28T16:12:56.402Z,21.93
2022-11-28T16:15:24.572Z,24.10
2022-11-28T16:17:55.130Z,24.43
2022-11-28T16:20:26.664Z,21.63
2022-11-28T16:23:02.434Z,23.13
2022-11-28T16:25:31.155Z,22.77
2022-11-28T16:27:59.819Z,21.87
2022-11-28T16:30:37.462Z,19.83
2022-11-28T16:33:35.241Z,19.80
2022-11-28T16:36:10.876Z,20.23
2022-11-28T16:38:41.083Z,26.33
2022-11-28T16:41:16.636Z,22.03
2022-11-28T16:43:47.334Z,20.17
2022-11-28T16:46:21.818Z,21.27
2022-11-28T16:48:51.529Z,21.93
2022-11-28T16:51:32.574Z,20.87
2022-11-28T16:54:21.715Z,27.50
2022-11-28T16:56:49.503Z,34.13
2022-11-28T16:59:18.962Z,31.43
2022-11-28T17:01:49.401Z,29.53
2022-11-28T17:04:22.826Z,41.07
2022-11-28T17:06:51.604Z,31.57
2022-11-28T17:09:21.052Z,36.43
2022-11-28T17:11:55.228Z,36.73
2022-11-28T17:14:23.120Z,29.00
2022-11-28T17:16:51.428Z,30.53
2022-11-28T17:19:32.324Z,27.70
2022-11-28T17:22:00.740Z,36.70
2022-11-28T17:24:34.377Z,34.60
2022-11-28T17:27:02.696Z,33.40
2022-11-28T17:29:30.636Z,33.17
2022-11-28T17:31:59.369Z,35.67
2022-11-28T17:34:30.700Z,32.33
2022-11-28T17:36:58.995Z,34.37
2022-11-28T17:39:28.337Z,31.73
2022-11-28T17:41:58.279Z,46.57
2022-11-28T17:44:28.232Z,45.83
2022-11-28T17:46:57.484Z,33.77
2022-11-28T17:49:26.107Z,38.10
2022-11-28T17:51:55.843Z,35.57
2022-11-28T17:54:25.542Z,39.23
2022-11-28T17:56:56.364Z,49.57
2022-11-28T17:59:26.902Z,82.20
2022-11-28T18:01:55.280Z,66.90
2022-11-28T18:04:23.116Z,69.07
2022-11-28T18:06:50.943Z,64.93
2022-11-28T18:09:18.759Z,48.80
2022-11-28T18:11:47.300Z,83.03
2022-11-28T18:14:19.225Z,68.33
2022-11-28T18:16:49.303Z,71.80
2022-11-28T18:19:17.291Z,66.43
2022-11-28T18:21:45.226Z,52.80
2022-11-28T18:24:13.174Z,55.40
2022-11-28T18:26:41.061Z,48.20
2022-11-28T18:29:09.154Z,54.13
2022-11-28T18:31:37.323Z,62.00
2022-11-28T18:34:08.330Z,52.97
2022-11-28T18:36:38.307Z,31.27
2022-11-28T18:39:08.877Z,37.03
2022-11-28T18:41:36.971Z,29.53
2022-11-28T18:44:07.878Z,50.33
2022-11-28T18:46:36.479Z,27.37
2022-11-28T18:49:06.033Z,17.77
2022-11-28T18:51:35.678Z,21.87
2022-11-28T18:54:04.514Z,25.07
2022-11-28T18:56:32.499Z,22.07
2022-11-28T18:59:00.363Z,17.33
2022-11-28T19:01:30.439Z,27.10
2022-11-28T19:04:01.096Z,17.70
2022-11-28T19:06:31.114Z,10.80
2022-11-28T19:09:02.966Z,11.90
2022-11-28T19:11:31.096Z,20.30
2022-11-28T19:13:59.496Z,22.63
2022-11-28T19:16:30.804Z,34.70
2022-11-28T19:18:59.365Z,37.07
2022-11-28T19:21:28.952Z,40.33
2022-11-28T19:23:58.848Z,49.73
2022-11-28T19:26:28.894Z,48.43
2022-11-28T19:29:10.049Z,39.50
2022-11-28T19:31:39.499Z,36.70
2022-11-28T19:34:09.164Z,33.63
2022-11-28T19:36:40.617Z,38.60
2022-11-28T19:39:13.966Z,52.77
2022-11-28T19:41:41.801Z,51.40
2022-11-28T19:44:10.871Z,52.33
2022-11-28T19:46:44.643Z,52.20
2022-11-28T19:49:18.788Z,44.80
2022-11-28T19:51:47.828Z,46.00
2022-11-28T19:54:19.465Z,53.47
2022-11-28T19:56:47.567Z,41.10
2022-11-28T19:59:40.118Z,44.07
2022-11-28T20:02:08.504Z,31.37
2022-11-28T20:04:36.355Z,22.40
2022-11-28T20:07:04.271Z,30.50
2022-11-28T20:09:33.505Z,27.53
2022-11-28T20:12:03.170Z,27.20
2022-11-28T20:14:32.269Z,28.40
2022-11-28T20:17:01.653Z,28.50
2022-11-28T20:19:29.780Z,29.90
2022-11-28T20:22:06.632Z,34.33
2022-11-28T20:24:35.888Z,34.10
2022-11-28T20:27:03.719Z,32.17
2022-11-28T20:29:31.696Z,37.93
2022-11-28T20:31:59.517Z,30.50
2022-11-28T20:34:27.862Z,32.13
2022-11-28T20:36:56.027Z,30.27
2022-11-28T20:39:30.661Z,37.60
2022-11-28T20:41:59.998Z,32.87
2022-11-28T20:44:27.842Z,29.97
2022-11-28T20:46:55.743Z,33.00
2022-11-28T20:49:26.293Z,33.27
2022-11-28T20:51:54.224Z,33.70
2022-11-28T20:54:23.206Z,38.53
2022-11-28T20:57:19.869Z,37.03
2022-11-28T20:59:42.234Z,39.13
2022-11-28T21:02:13.294Z,35.27
2022-11-28T21:04:41.282Z,31.87
2022-11-28T21:07:09.564Z,38.50
2022-11-28T21:09:37.370Z,37.97
2022-11-28T21:12:05.382Z,34.77
2022-11-28T21:14:33.169Z,32.53
2022-11-28T21:17:05.648Z,35.40
2022-11-28T21:19:33.423Z,37.30
2022-11-28T21:22:03.022Z,37.17
2022-11-28T21:24:32.056Z,35.43
2022-11-28T21:26:59.942Z,31.43
2022-11-28T21:29:27.867Z,31.10
2022-11-28T21:31:55.748Z,21.60
2022-11-28T21:34:24.974Z,24.83
2022-11-28T21:36:54.681Z,25.10
2022-11-28T21:39:22.846Z,18.00
2022-11-28T21:41:51.930Z,23.20
2022-11-28T21:44:19.839Z,20.43
2022-11-28T21:46:47.717Z,15.87
2022-11-28T21:49:15.571Z,20.10
2022-11-28T21:51:44.799Z,18.13
2022-11-28T21:54:12.726Z,17.03
2022-11-28T21:56:40.939Z,14.23
2022-11-28T21:59:09.006Z,15.20
2022-11-28T22:01:37.107Z,13.87
2022-11-28T22:04:05.658Z,9.50
2022-11-28T22:06:34.405Z,11.33
2022-11-28T22:09:09.314Z,12.77
2022-11-28T22:11:38.501Z,8.80
2022-11-28T22:14:06.680Z,8.03
2022-11-28T22:16:34.505Z,8.23
2022-11-28T22:19:03.224Z,6.73
2022-11-28T22:24:23.018Z,7.50
2022-11-28T22:26:51.201Z,5.77
2022-11-28T22:29:19.117Z,7.97
2022-11-28T22:31:47.082Z,7.33
2022-11-28T22:34:15.214Z,8.03
2022-11-28T22:36:43.016Z,9.50
2022-11-28T22:39:11.744Z,8.60
2022-11-28T22:41:41.044Z,6.87
2022-11-28T22:44:09.063Z,7.13
2022-11-28T22:46:37.346Z,7.13
2022-11-28T22:49:07.077Z,8.17
2022-11-28T22:51:35.258Z,11.10
2022-11-28T22:54:03.579Z,9.60
2022-11-28T22:56:33.975Z,9.50
2022-11-28T22:59:05.026Z,7.30
2022-11-28T23:01:34.378Z,6.63
2022-11-28T23:04:06.539Z,11.67
2022-11-28T23:06:40.831Z,8.13
2022-11-28T23:09:10.524Z,7.67
2022-11-28T23:11:40.433Z,11.93
2022-11-28T23:14:12.828Z,8.40
2022-11-28T23:16:42.791Z,7.60
2022-11-28T23:19:13.713Z,7.97
2022-11-28T23:21:43.704Z,7.90
2022-11-28T23:24:14.946Z,9.63
2022-11-28T23:26:45.438Z,8.43
2022-11-28T23:29:24.229Z,9.57
2022-11-28T23:31:52.170Z,12.13
2022-11-28T23:34:20.073Z,9.30
2022-11-28T23:36:50.365Z,14.27
2022-11-28T23:39:34.799Z,14.73
2022-11-28T23:42:03.114Z,13.83
2022-11-28T23:44:32.339Z,18.40
2022-11-28T23:47:00.124Z,15.77
2022-11-28T23:49:27.842Z,16.20
2022-11-28T23:51:55.892Z,15.70
2022-11-28T23:54:23.680Z,16.50
2022-11-28T23:56:52.180Z,19.30
2022-11-28T23:59:21.374Z,21.20
